Aeroporto :







RITROVATECI SU...

 
LOGIN :

Iscrizione | Disclaimer

   EN    FR    IT 

 









Sommario :    VFR   VFR Marginale   IFR   IFR Intensivo   IFR Molto Intensivo
Visibilità : 
Base nubi : 
>= 8 km
>= 3000ft
5 / 8 km
1000 / 3000 ft
1500m / 5 km
500 / 1000 ft
800 / 1500m
200 / 500 ft
< 800m
< 200 ft
Simboli :   Temporali  Nebbia  Neve Forte  Precipitazioni Forti  Vento > 20 kt






- Altitudine del aeroporto : 56 ft


KRKD - Knox County Regional

ULTIMO METAR :
  • 112014Z AUTO 04011G16KT 10SM BKN029 OVC046 03/M04 A3017 RMK AO2

METARs OBSOLETI :
  • 111956Z AUTO 03007G14KT 10SM SCT031 OVC046 03/M04 A3018 RMK AO2 SLP220 T00281044
  • 111856Z AUTO 06008KT 10SM OVC033 03/M04 A3018 RMK AO2 SLP219 T00331044
  • 111756Z AUTO 04008KT 10SM OVC035 03/M03 A3018 RMK AO2 SLP219 T00331033 10056 20033 51004

TAF KRKD
Valido dal 11 a 18 ore il 12 a 18 ore UTC


111745Z 1118/1218 04007KT P6SM OVC035
FM112100 07009G16KT 4SM -RA BR OVC008
FM120600 06009KT 2SM -RA BR OVC002
FM121500 23009KT 4SM -RA BR OVC007 AMD LTD TO CLD VIS AND WIND



MetMap, La meteo Aeronautica in un colpo d'occhio ! - Copyright ORBIFLY Dicembre 2007 - Disclaimer

ORBIFLY MET'MAP TEAM :

Programmazione e sviluppo : Alexandra Zaïnal
Concezione e sviluppo : Baudouin d'Aumeries
Co-Programmazione e sviluppo : Marc-Olivier Méhu
Supporto tecnico e logistico : Manuel Goepfert
Aiuto per la traduzione : Arnaldo La Scala

Contatto : metmap@orbifly.com




FONTI E CREDITI :

   NOAA